TimeCDT,TemperatureF,Dew PointF,Humidity,Sea Level PressureIn,VisibilityMPH,Wind Direction,Wind SpeedMPH,Gust SpeedMPH,PrecipitationIn,Events,Conditions,WindDirDegrees,DateUTC
12:15 AM,30.2,21.2,69,30.02,10.0,ENE,12.7,17.3,N/A,,Mostly Cloudy,60,2013-03-17 05:15:00
12:35 AM,30.2,23.0,75,30.02,10.0,East,11.5,-,N/A,,Scattered Clouds,80,2013-03-17 05:35:00
12:55 AM,32.0,23.0,69,30.02,10.0,ENE,12.7,-,N/A,,Mostly Cloudy,60,2013-03-17 05:55:00
1:15 AM,30.2,23.0,75,30.01,10.0,ENE,11.5,-,N/A,,Overcast,60,2013-03-17 06:15:00
1:35 AM,32.0,24.8,75,30.00,10.0,ENE,12.7,-,N/A,,Mostly Cloudy,70,2013-03-17 06:35:00
1:55 AM,30.2,24.8,80,29.98,10.0,ENE,13.8,-,N/A,,Partly Cloudy,70,2013-03-17 06:55:00
2:15 AM,32.0,24.8,75,29.97,10.0,East,12.7,-,N/A,,Mostly Cloudy,80,2013-03-17 07:15:00
2:35 AM,30.2,24.8,80,29.96,10.0,East,12.7,-,N/A,,Mostly Cloudy,80,2013-03-17 07:35:00
2:55 AM,30.2,24.8,80,29.95,10.0,East,12.7,-,N/A,,Mostly Cloudy,80,2013-03-17 07:55:00
3:15 AM,30.2,24.8,80,29.97,10.0,ENE,11.5,-,N/A,,Mostly Cloudy,70,2013-03-17 08:15:00
3:35 AM,30.2,24.8,80,29.96,10.0,East,10.4,-,N/A,,Mostly Cloudy,80,2013-03-17 08:35:00
3:55 AM,30.2,24.8,80,29.94,10.0,ENE,11.5,-,N/A,,Overcast,70,2013-03-17 08:55:00
4:15 AM,30.2,24.8,80,29.95,10.0,NE,9.2,-,N/A,,Overcast,40,2013-03-17 09:15:00
4:35 AM,30.2,24.8,80,29.95,10.0,NE,9.2,-,N/A,,Overcast,40,2013-03-17 09:35:00
4:55 AM,30.2,24.8,80,29.95,10.0,NE,5.8,-,N/A,,Overcast,40,2013-03-17 09:55:00
5:15 AM,30.2,24.8,80,29.95,10.0,NNE,8.1,-,N/A,,Overcast,30,2013-03-17 10:15:00
5:35 AM,30.2,24.8,80,29.95,10.0,NNE,9.2,-,N/A,,Overcast,30,2013-03-17 10:35:00
5:55 AM,30.2,24.8,80,29.95,10.0,NNE,8.1,-,N/A,,Overcast,30,2013-03-17 10:55:00
6:15 AM,30.2,24.8,80,29.96,10.0,NNE,9.2,-,N/A,,Overcast,30,2013-03-17 11:15:00
6:35 AM,30.2,24.8,80,29.96,10.0,NNE,9.2,-,N/A,,Overcast,30,2013-03-17 11:35:00
6:55 AM,30.2,24.8,80,29.96,10.0,NE,9.2,-,N/A,,Overcast,50,2013-03-17 11:55:00
7:15 AM,30.2,24.8,80,29.96,10.0,NE,6.9,-,N/A,,Overcast,50,2013-03-17 12:15:00
7:35 AM,30.2,24.8,80,29.96,10.0,NE,9.2,-,N/A,,Overcast,50,2013-03-17 12:35:00
7:55 AM,30.2,24.8,80,29.95,10.0,ENE,8.1,-,N/A,,Overcast,60,2013-03-17 12:55:00
8:15 AM,30.2,24.8,80,29.95,10.0,ENE,10.4,-,N/A,,Overcast,60,2013-03-17 13:15:00
8:35 AM,30.2,24.8,80,29.94,10.0,ENE,8.1,-,N/A,,Overcast,60,2013-03-17 13:35:00
8:55 AM,30.2,24.8,80,29.94,10.0,ENE,9.2,-,N/A,,Overcast,70,2013-03-17 13:55:00
9:15 AM,30.2,24.8,80,29.95,10.0,ENE,9.2,-,N/A,,Overcast,70,2013-03-17 14:15:00
9:35 AM,30.2,24.8,80,29.94,10.0,ENE,9.2,-,N/A,,Overcast,60,2013-03-17 14:35:00
9:55 AM,30.2,24.8,80,29.94,10.0,NE,10.4,-,N/A,,Overcast,50,2013-03-17 14:55:00
10:15 AM,32.0,24.8,75,29.93,10.0,NE,10.4,-,N/A,,Overcast,50,2013-03-17 15:15:00
10:35 AM,32.0,24.8,75,29.93,10.0,NE,8.1,-,N/A,,Overcast,40,2013-03-17 15:35:00
10:55 AM,33.8,24.8,70,29.92,10.0,ENE,5.8,-,N/A,,Mostly Cloudy,60,2013-03-17 15:55:00
11:15 AM,35.6,26.6,70,29.91,10.0,NE,5.8,-,N/A,,Mostly Cloudy,40,2013-03-17 16:15:00
11:35 AM,35.6,26.6,70,29.90,10.0,East,6.9,-,N/A,,Scattered Clouds,90,2013-03-17 16:35:00
11:55 AM,35.6,26.6,70,29.89,10.0,East,8.1,-,N/A,,Partly Cloudy,80,2013-03-17 16:55:00
12:15 PM,37.4,26.6,65,29.88,10.0,ESE,10.4,-,N/A,,Scattered Clouds,120,2013-03-17 17:15:00
12:35 PM,39.2,28.4,65,29.87,10.0,East,5.8,-,N/A,,Mostly Cloudy,90,2013-03-17 17:35:00
12:55 PM,39.2,28.4,65,29.85,10.0,East,10.4,-,N/A,,Scattered Clouds,90,2013-03-17 17:55:00
1:15 PM,41.0,28.4,61,29.84,10.0,East,6.9,-,N/A,,Scattered Clouds,100,2013-03-17 18:15:00
1:35 PM,41.0,30.2,65,29.83,10.0,ESE,8.1,-,N/A,,Overcast,110,2013-03-17 18:35:00
1:55 PM,42.8,30.2,61,29.81,10.0,SE,10.4,-,N/A,,Overcast,130,2013-03-17 18:55:00
2:15 PM,42.8,30.2,61,29.80,10.0,SE,10.4,-,N/A,,Overcast,130,2013-03-17 19:15:00
2:35 PM,42.8,30.2,61,29.78,10.0,SE,12.7,-,N/A,,Overcast,140,2013-03-17 19:35:00
2:55 PM,42.8,30.2,61,29.77,10.0,SE,12.7,17.3,N/A,,Overcast,140,2013-03-17 19:55:00
3:15 PM,42.8,30.2,61,29.75,10.0,ESE,12.7,17.3,N/A,,Overcast,120,2013-03-17 20:15:00
3:35 PM,42.8,30.2,61,29.74,10.0,ESE,11.5,17.3,N/A,,Overcast,120,2013-03-17 20:35:00
3:55 PM,42.8,32.0,66,29.73,10.0,SE,9.2,-,N/A,,Overcast,140,2013-03-17 20:55:00
4:15 PM,42.8,32.0,66,29.71,10.0,ESE,11.5,-,N/A,,Overcast,120,2013-03-17 21:15:00
4:35 PM,42.8,32.0,66,29.70,10.0,SSE,10.4,16.1,N/A,,Overcast,150,2013-03-17 21:35:00
4:55 PM,44.6,32.0,61,29.68,10.0,SE,12.7,-,N/A,,Overcast,130,2013-03-17 21:55:00
5:15 PM,44.6,32.0,61,29.67,10.0,SE,13.8,17.3,N/A,,Mostly Cloudy,130,2013-03-17 22:15:00
5:35 PM,44.6,33.8,66,29.66,10.0,ESE,12.7,16.1,N/A,,Partly Cloudy,120,2013-03-17 22:35:00
5:55 PM,44.6,33.8,66,29.66,10.0,SE,16.1,-,N/A,,Clear,130,2013-03-17 22:55:00
6:15 PM,42.8,32.0,66,29.64,10.0,SE,15.0,-,N/A,,Clear,130,2013-03-17 23:15:00
6:35 PM,42.8,32.0,66,29.64,10.0,SE,17.3,-,N/A,,Mostly Cloudy,130,2013-03-17 23:35:00
6:55 PM,42.8,32.0,66,29.65,10.0,SE,15.0,-,N/A,,Overcast,140,2013-03-17 23:55:00
7:15 PM,41.0,32.0,70,29.69,10.0,SSE,11.5,-,N/A,,Overcast,150,2013-03-18 00:15:00
7:35 PM,41.0,32.0,70,29.69,10.0,SE,11.5,-,N/A,,Overcast,140,2013-03-18 00:35:00
7:55 PM,41.0,32.0,70,29.68,10.0,SE,15.0,-,N/A,,Overcast,140,2013-03-18 00:55:00
8:15 PM,41.0,32.0,70,29.66,10.0,SE,17.3,-,N/A,,Overcast,130,2013-03-18 01:15:00
8:35 PM,39.2,32.0,75,29.63,10.0,ESE,17.3,-,N/A,,Overcast,110,2013-03-18 01:35:00
8:55 PM,39.2,32.0,75,29.63,10.0,ESE,18.4,-,N/A,,Overcast,120,2013-03-18 01:55:00
9:15 PM,39.2,32.0,75,29.64,10.0,ESE,16.1,-,N/A,,Overcast,120,2013-03-18 02:15:00
9:35 PM,39.2,32.0,75,29.66,10.0,ESE,12.7,-,N/A,,Overcast,120,2013-03-18 02:35:00
9:55 PM,39.2,32.0,75,29.69,10.0,SE,10.4,-,N/A,,Overcast,130,2013-03-18 02:55:00
10:15 PM,39.2,32.0,75,29.71,10.0,ESE,9.2,-,N/A,,Overcast,110,2013-03-18 03:15:00
10:35 PM,39.2,33.8,81,29.72,10.0,East,6.9,-,N/A,,Overcast,100,2013-03-18 03:35:00
10:55 PM,39.2,33.8,81,29.75,9.0,NE,5.8,-,N/A,,Overcast,50,2013-03-18 03:55:00
11:15 PM,39.2,33.8,81,29.71,8.0,SE,13.8,-,N/A,,Overcast,140,2013-03-18 04:15:00
11:35 PM,37.4,33.8,87,29.71,8.0,SSE,11.5,-,N/A,,Overcast,150,2013-03-18 04:35:00
11:55 PM,37.4,33.8,87,29.75,7.0,Calm,Calm,-,N/A,,Overcast,0,2013-03-18 04:55:00